createdAt,value
2017-09-18T00:00:30.870Z,3.33
2017-09-18T00:02:59.197Z,3.35
2017-09-18T00:05:27.452Z,3.53
2017-09-18T00:07:55.740Z,3.47
2017-09-18T00:10:24.034Z,3.00
2017-09-18T00:12:52.428Z,3.37
2017-09-18T00:15:20.736Z,3.50
2017-09-18T00:17:49.005Z,2.50
2017-09-18T00:20:17.260Z,3.03
2017-09-18T00:22:45.544Z,3.03
2017-09-18T00:25:13.805Z,2.67
2017-09-18T00:27:42.133Z,2.60
2017-09-18T00:30:10.408Z,2.85
2017-09-18T00:32:38.685Z,2.97
2017-09-18T00:35:06.968Z,2.78
2017-09-18T00:37:35.231Z,2.85
2017-09-18T00:40:03.517Z,3.60
2017-09-18T00:42:32.540Z,3.20
2017-09-18T00:45:00.817Z,3.05
2017-09-18T00:47:29.099Z,3.30
2017-09-18T00:49:57.368Z,3.97
2017-09-18T00:52:27.192Z,3.05
2017-09-18T00:54:56.261Z,2.83
2017-09-18T00:57:25.293Z,2.70
2017-09-18T00:59:53.589Z,3.22
2017-09-18T01:02:21.862Z,2.87
2017-09-18T01:04:50.932Z,3.50
2017-09-18T01:07:19.198Z,2.95
2017-09-18T01:09:47.459Z,2.83
2017-09-18T01:12:16.524Z,3.10
2017-09-18T01:14:44.787Z,3.28
2017-09-18T01:17:13.137Z,3.95
2017-09-18T01:19:41.416Z,2.75
2017-09-18T01:22:09.730Z,3.20
2017-09-18T01:24:37.992Z,3.60
2017-09-18T01:27:06.259Z,3.37
2017-09-18T01:29:34.560Z,3.80
2017-09-18T01:32:02.816Z,3.33
2017-09-18T01:34:31.132Z,3.33
2017-09-18T01:36:59.392Z,3.87
2017-09-18T01:39:27.656Z,3.10
2017-09-18T01:41:56.239Z,3.22
2017-09-18T01:44:24.504Z,4.00
2017-09-18T01:46:52.888Z,2.95
2017-09-18T01:49:21.148Z,4.00
2017-09-18T01:51:49.430Z,3.85
2017-09-18T01:54:18.481Z,3.72
2017-09-18T01:56:46.744Z,3.75
2017-09-18T01:59:15.048Z,3.80
2017-09-18T02:01:44.080Z,3.95
2017-09-18T02:04:12.337Z,3.22
2017-09-18T02:06:40.633Z,3.60
2017-09-18T02:09:08.900Z,4.25
2017-09-18T02:11:37.212Z,3.83
2017-09-18T02:14:05.500Z,4.00
2017-09-18T02:16:33.811Z,3.70
2017-09-18T02:19:02.860Z,3.83
2017-09-18T02:21:31.124Z,3.60
2017-09-18T02:23:59.412Z,3.90
2017-09-18T02:26:27.675Z,4.20
2017-09-18T02:28:55.945Z,3.72
2017-09-18T02:31:24.219Z,3.60
2017-09-18T02:33:52.476Z,3.55
2017-09-18T02:36:20.793Z,2.95
2017-09-18T02:38:49.056Z,3.90
2017-09-18T02:41:17.317Z,3.55
2017-09-18T02:43:45.606Z,3.40
2017-09-18T02:46:13.896Z,3.30
2017-09-18T02:48:42.397Z,3.35
2017-09-18T02:51:11.423Z,3.92
2017-09-18T02:53:39.680Z,3.47
2017-09-18T02:56:08.741Z,3.35
2017-09-18T02:58:37.000Z,3.05
2017-09-18T03:01:05.308Z,3.33
2017-09-18T03:03:33.582Z,2.55
2017-09-18T03:06:01.863Z,3.60
2017-09-18T03:08:30.151Z,2.60
2017-09-18T03:10:59.444Z,2.45
2017-09-18T03:13:27.751Z,2.67
2017-09-18T03:15:56.020Z,2.90
2017-09-18T03:18:25.053Z,3.95
2017-09-18T03:20:53.332Z,3.50
2017-09-18T03:23:21.600Z,3.35
2017-09-18T03:25:50.120Z,3.20
2017-09-18T03:28:19.156Z,3.03
2017-09-18T03:30:47.428Z,3.83
2017-09-18T03:33:15.712Z,3.20
2017-09-18T03:35:44.003Z,3.45
2017-09-18T03:38:12.417Z,3.90
2017-09-18T03:40:40.676Z,2.97
2017-09-18T03:43:08.942Z,3.60
2017-09-18T03:45:37.227Z,3.25
2017-09-18T03:48:05.496Z,2.90
2017-09-18T03:50:33.788Z,3.12
2017-09-18T03:53:02.052Z,2.50
2017-09-18T03:55:30.403Z,2.33
2017-09-18T03:57:58.668Z,2.50
2017-09-18T04:00:26.980Z,2.62
2017-09-18T04:02:55.248Z,2.30
2017-09-18T04:05:23.527Z,2.30
2017-09-18T04:07:51.807Z,2.65
2017-09-18T04:10:20.084Z,2.40
2017-09-18T04:12:48.397Z,2.65
2017-09-18T04:15:16.664Z,2.35
2017-09-18T04:17:44.936Z,3.12
2017-09-18T04:20:13.223Z,2.55
2017-09-18T04:22:41.494Z,2.47
2017-09-18T04:25:09.792Z,2.30
2017-09-18T04:27:38.854Z,2.25
2017-09-18T04:30:07.130Z,2.70
2017-09-18T04:32:35.423Z,2.53
2017-09-18T04:35:03.694Z,2.55
2017-09-18T04:37:31.980Z,3.10
2017-09-18T04:40:00.248Z,2.70
2017-09-18T04:42:28.515Z,2.78
2017-09-18T04:44:56.812Z,2.75
2017-09-18T04:47:25.080Z,2.70
2017-09-18T04:49:53.396Z,3.00
2017-09-18T04:52:21.662Z,2.83
2017-09-18T04:54:50.702Z,3.08
2017-09-18T04:57:18.980Z,3.37
2017-09-18T04:59:47.258Z,2.67
2017-09-18T05:02:15.749Z,2.92
2017-09-18T05:04:44.036Z,3.12
2017-09-18T05:07:12.301Z,2.90
2017-09-18T05:09:40.584Z,3.42
2017-09-18T05:12:08.857Z,3.12
2017-09-18T05:14:37.145Z,3.75
2017-09-18T05:17:05.418Z,2.72
2017-09-18T05:19:33.742Z,2.70
2017-09-18T05:22:02.008Z,2.80
2017-09-18T05:24:30.549Z,3.10
2017-09-18T05:27:02.317Z,4.35
2017-09-18T05:29:30.657Z,3.72
2017-09-18T05:31:58.976Z,2.97
2017-09-18T05:34:28.021Z,4.50
2017-09-18T05:36:56.294Z,3.72
2017-09-18T05:39:24.576Z,3.78
2017-09-18T05:41:52.871Z,3.28
2017-09-18T05:44:21.187Z,3.40
2017-09-18T05:46:50.253Z,3.37
2017-09-18T05:49:18.536Z,4.30
2017-09-18T05:51:46.820Z,3.70
2017-09-18T05:54:15.097Z,4.00
2017-09-18T05:56:43.391Z,3.90
2017-09-18T05:59:11.657Z,3.85
2017-09-18T06:01:39.935Z,4.30
2017-09-18T06:04:08.208Z,4.10
2017-09-18T06:06:37.275Z,4.05
2017-09-18T06:09:05.564Z,3.72
2017-09-18T06:11:35.469Z,3.87
2017-09-18T06:14:03.760Z,4.45
2017-09-18T06:16:32.026Z,4.70
2017-09-18T06:19:00.312Z,4.53
2017-09-18T06:21:28.633Z,4.32
2017-09-18T06:23:56.932Z,4.03
2017-09-18T06:26:25.202Z,4.50
2017-09-18T06:28:53.515Z,4.35
2017-09-18T06:31:21.772Z,4.00
2017-09-18T06:33:50.044Z,3.65
2017-09-18T06:36:18.328Z,3.90
2017-09-18T06:38:46.608Z,4.03
2017-09-18T06:41:14.885Z,4.40
2017-09-18T06:43:43.160Z,4.07
2017-09-18T06:46:11.450Z,3.90
2017-09-18T06:48:39.712Z,3.83
2017-09-18T06:51:08.034Z,3.70
2017-09-18T06:53:36.301Z,3.25
2017-09-18T06:56:04.683Z,3.67
2017-09-18T06:58:32.944Z,3.10
2017-09-18T07:01:01.317Z,3.55
2017-09-18T07:03:29.584Z,3.50
2017-09-18T07:05:57.904Z,3.50
2017-09-18T07:08:26.194Z,3.28
2017-09-18T07:10:55.219Z,3.10
2017-09-18T07:13:23.654Z,3.00
2017-09-18T07:15:51.992Z,3.35
2017-09-18T07:18:22.508Z,3.25
2017-09-18T07:20:50.803Z,2.80
2017-09-18T07:23:19.064Z,3.45
2017-09-18T07:25:47.348Z,4.43
2017-09-18T07:28:15.720Z,4.40
2017-09-18T07:30:44.036Z,4.32
2017-09-18T07:33:12.311Z,4.00
2017-09-18T07:35:40.584Z,5.00
2017-09-18T07:38:08.877Z,4.45
2017-09-18T07:40:37.905Z,5.65
2017-09-18T07:43:06.257Z,5.00
2017-09-18T07:45:34.791Z,4.85
2017-09-18T07:48:03.069Z,5.93
2017-09-18T07:50:31.356Z,5.00
2017-09-18T07:52:59.623Z,4.68
2017-09-18T07:55:27.928Z,4.50
2017-09-18T07:57:56.968Z,5.28
2017-09-18T08:00:25.262Z,4.68
2017-09-18T08:02:53.548Z,4.95
2017-09-18T08:05:21.813Z,5.05
2017-09-18T08:07:50.148Z,5.95
2017-09-18T08:10:18.421Z,5.32
2017-09-18T08:12:46.696Z,5.18
2017-09-18T08:15:14.990Z,5.43
2017-09-18T08:17:43.264Z,5.82
2017-09-18T08:20:11.768Z,6.05
2017-09-18T08:22:40.052Z,6.28
2017-09-18T08:25:08.323Z,5.70
2017-09-18T08:27:36.919Z,6.70
2017-09-18T08:30:05.200Z,7.47
2017-09-18T08:32:33.527Z,6.05
2017-09-18T08:35:01.793Z,7.15
2017-09-18T08:37:30.070Z,7.12
2017-09-18T08:39:58.360Z,6.20
2017-09-18T08:42:26.628Z,6.00
2017-09-18T08:44:54.936Z,6.50
2017-09-18T08:47:23.199Z,6.35
2017-09-18T08:49:51.468Z,7.28
2017-09-18T08:52:19.755Z,6.68
2017-09-18T08:54:48.033Z,6.95
2017-09-18T08:57:16.320Z,6.30
2017-09-18T08:59:45.366Z,7.07
2017-09-18T09:02:13.639Z,6.43
2017-09-18T09:04:41.936Z,6.95
2017-09-18T09:07:12.124Z,7.00
2017-09-18T09:09:40.453Z,6.07
2017-09-18T09:12:08.731Z,6.25
2017-09-18T09:14:37.005Z,5.53
2017-09-18T09:17:06.804Z,6.10
2017-09-18T09:19:35.067Z,5.82
2017-09-18T09:22:03.371Z,5.30
2017-09-18T09:24:31.639Z,4.65
2017-09-18T09:26:59.899Z,4.85
2017-09-18T09:29:28.196Z,4.95
2017-09-18T09:31:56.460Z,6.03
2017-09-18T09:34:26.273Z,4.90
2017-09-18T09:36:54.554Z,5.80
2017-09-18T09:39:22.810Z,5.03
2017-09-18T09:41:51.115Z,4.45
2017-09-18T09:44:19.376Z,6.28
2017-09-18T09:46:47.796Z,5.32
2017-09-18T09:49:16.301Z,4.72
2017-09-18T09:51:44.572Z,5.10
2017-09-18T09:54:13.297Z,5.78
2017-09-18T09:56:41.576Z,5.43
2017-09-18T09:59:09.872Z,5.10
2017-09-18T10:01:38.904Z,4.95
2017-09-18T10:04:07.172Z,5.62
2017-09-18T10:06:36.237Z,5.15
2017-09-18T10:09:04.516Z,6.50
2017-09-18T10:11:32.831Z,5.50
2017-09-18T10:14:01.104Z,4.75
2017-09-18T10:16:29.414Z,5.75
2017-09-18T10:18:58.456Z,5.60
2017-09-18T10:21:26.723Z,5.00
2017-09-18T10:23:55.035Z,4.62
2017-09-18T10:26:24.069Z,5.75
2017-09-18T10:28:52.336Z,5.57
2017-09-18T10:31:20.629Z,5.05
2017-09-18T10:33:49.669Z,4.90
2017-09-18T10:36:18.313Z,4.05
2017-09-18T10:38:46.592Z,4.50
2017-09-18T10:41:14.993Z,5.10
2017-09-18T10:43:43.389Z,5.20
2017-09-18T10:46:11.656Z,5.07
2017-09-18T10:48:39.964Z,5.50
2017-09-18T10:51:08.248Z,4.70
2017-09-18T10:53:36.525Z,4.47
2017-09-18T10:56:05.577Z,4.82
2017-09-18T10:58:33.845Z,4.32
2017-09-18T11:01:02.171Z,4.53
2017-09-18T11:03:30.448Z,4.60
2017-09-18T11:05:58.720Z,4.78
2017-09-18T11:08:27.004Z,4.80
2017-09-18T11:10:56.041Z,4.70
2017-09-18T11:13:24.356Z,5.32
2017-09-18T11:15:52.631Z,4.62
2017-09-18T11:18:20.912Z,4.20
2017-09-18T11:20:49.193Z,4.50
2017-09-18T11:23:17.536Z,4.07
2017-09-18T11:25:46.053Z,4.65
2017-09-18T11:28:14.317Z,4.32
2017-09-18T11:30:43.373Z,3.55
2017-09-18T11:33:11.664Z,2.87
2017-09-18T11:35:40.017Z,3.53
2017-09-18T11:38:08.312Z,3.30
2017-09-18T11:40:36.581Z,3.58
2017-09-18T11:43:04.894Z,2.87
2017-09-18T11:45:33.157Z,2.40
2017-09-18T11:48:01.428Z,2.45
2017-09-18T11:50:30.500Z,2.12
2017-09-18T11:52:59.532Z,2.45
2017-09-18T11:55:27.844Z,2.97
2017-09-18T11:57:56.112Z,3.30
2017-09-18T12:02:59.669Z,2.60
2017-09-18T12:05:27.932Z,2.40
2017-09-18T12:07:56.320Z,3.17
2017-09-18T12:10:25.352Z,4.12
2017-09-18T12:12:53.683Z,3.70
2017-09-18T12:15:21.947Z,3.55
2017-09-18T12:17:50.226Z,2.03
2017-09-18T12:20:18.920Z,2.15
2017-09-18T12:22:47.191Z,2.65
2017-09-18T12:25:15.480Z,3.20
2017-09-18T12:27:44.527Z,2.60
2017-09-18T12:30:14.320Z,3.12
2017-09-18T12:32:42.604Z,3.10
2017-09-18T12:35:10.883Z,3.10
2017-09-18T12:37:39.926Z,3.58
2017-09-18T12:40:08.216Z,3.33
2017-09-18T12:42:37.256Z,3.87
2017-09-18T12:45:05.577Z,2.83
2017-09-18T12:47:33.857Z,2.20
2017-09-18T12:50:02.121Z,2.50
2017-09-18T12:52:30.512Z,2.45
2017-09-18T12:54:58.771Z,2.90
2017-09-18T12:57:27.066Z,2.70
2017-09-18T12:59:56.104Z,2.42
2017-09-18T13:02:24.391Z,2.30
2017-09-18T13:04:52.700Z,2.35
2017-09-18T13:07:21.127Z,2.35
2017-09-18T13:09:49.404Z,2.53
2017-09-18T13:12:17.700Z,2.85
2017-09-18T13:14:45.976Z,2.40
2017-09-18T13:17:14.263Z,2.47
2017-09-18T13:19:42.549Z,2.90
2017-09-18T13:22:11.608Z,3.30
2017-09-18T13:24:39.884Z,3.15
2017-09-18T13:27:08.176Z,2.95
2017-09-18T13:29:36.470Z,3.03
2017-09-18T13:32:05.522Z,2.15
2017-09-18T13:34:33.826Z,2.47
2017-09-18T13:37:02.112Z,2.17
2017-09-18T13:39:30.372Z,2.05
2017-09-18T13:41:58.659Z,2.30
2017-09-18T13:44:27.710Z,2.37
2017-09-18T13:46:55.991Z,2.40
2017-09-18T13:49:24.264Z,2.20
2017-09-18T13:51:52.566Z,2.53
2017-09-18T13:54:21.359Z,2.65
2017-09-18T13:56:49.648Z,2.30
2017-09-18T13:59:17.940Z,2.17
2017-09-18T14:01:46.216Z,3.17
2017-09-18T14:04:14.518Z,2.10
2017-09-18T14:06:43.160Z,2.37
2017-09-18T14:09:12.207Z,2.65
2017-09-18T14:11:40.485Z,1.90
2017-09-18T14:14:08.772Z,1.98
2017-09-18T14:16:37.092Z,2.55
2017-09-18T14:19:06.147Z,1.70
2017-09-18T14:21:34.912Z,2.33
2017-09-18T14:24:03.199Z,1.98
2017-09-18T14:26:31.479Z,2.55
2017-09-18T14:28:59.764Z,2.65
2017-09-18T14:31:28.028Z,2.25
2017-09-18T14:33:56.311Z,2.10
2017-09-18T14:36:24.588Z,2.03
2017-09-18T14:38:52.885Z,2.10
2017-09-18T14:41:21.147Z,2.30
2017-09-18T14:43:49.439Z,2.15
2017-09-18T14:46:17.708Z,2.10
2017-09-18T14:48:46.004Z,1.90
2017-09-18T14:51:14.283Z,1.62
2017-09-18T14:53:42.601Z,1.80
2017-09-18T14:56:10.867Z,1.90
2017-09-18T14:58:40.652Z,1.80
2017-09-18T15:01:10.444Z,2.20
2017-09-18T15:03:38.748Z,2.75
2017-09-18T15:06:07.805Z,2.45
2017-09-18T15:08:36.079Z,2.65
2017-09-18T15:11:05.172Z,2.00
2017-09-18T15:13:33.475Z,2.33
2017-09-18T15:16:01.787Z,2.12
2017-09-18T15:18:31.117Z,2.10
2017-09-18T15:20:59.501Z,2.03
2017-09-18T15:23:27.946Z,2.65
2017-09-18T15:25:57.068Z,1.85
2017-09-18T15:28:25.768Z,2.00
2017-09-18T15:30:54.052Z,1.67
2017-09-18T15:33:22.328Z,2.10
2017-09-18T15:35:50.841Z,2.00
2017-09-18T15:38:19.092Z,2.40
2017-09-18T15:40:47.383Z,1.83
2017-09-18T15:43:15.738Z,2.20
2017-09-18T15:45:44.820Z,2.20
2017-09-18T15:48:13.148Z,2.75
2017-09-18T15:50:41.462Z,2.30
2017-09-18T15:53:12.325Z,2.25
2017-09-18T15:55:41.708Z,1.92
2017-09-18T15:58:09.988Z,2.00
2017-09-18T16:00:38.308Z,2.40
2017-09-18T16:03:06.581Z,2.08
2017-09-18T16:05:34.854Z,2.30
2017-09-18T16:08:03.148Z,2.08
2017-09-18T16:10:32.176Z,2.35
2017-09-18T16:13:00.463Z,1.65
2017-09-18T16:15:28.745Z,1.52
2017-09-18T16:17:57.024Z,1.90
2017-09-18T16:20:25.338Z,1.95
2017-09-18T16:22:53.942Z,1.67
2017-09-18T16:25:22.229Z,1.75
2017-09-18T16:27:51.298Z,3.20
2017-09-18T16:30:19.611Z,1.58
2017-09-18T16:32:47.902Z,1.77
2017-09-18T16:35:16.966Z,2.22
2017-09-18T16:37:45.270Z,1.60
2017-09-18T16:40:14.294Z,1.67
2017-09-18T16:42:42.575Z,1.75
2017-09-18T16:45:10.904Z,1.83
2017-09-18T16:47:39.204Z,1.80
2017-09-18T16:50:07.481Z,1.98
2017-09-18T16:52:35.795Z,2.00
2017-09-18T16:55:04.888Z,2.12
2017-09-18T16:57:33.172Z,1.77
2017-09-18T17:00:02.228Z,1.80
2017-09-18T17:02:30.503Z,1.90
2017-09-18T17:04:58.776Z,1.65
2017-09-18T17:07:27.841Z,1.90
2017-09-18T17:09:56.128Z,1.98
2017-09-18T17:12:25.156Z,1.40
2017-09-18T17:14:53.440Z,1.85
2017-09-18T17:17:21.743Z,1.70
2017-09-18T17:19:50.032Z,1.80
2017-09-18T17:22:18.297Z,1.55
2017-09-18T17:24:46.579Z,2.03
2017-09-18T17:27:15.608Z,2.15
2017-09-18T17:29:43.908Z,2.55
2017-09-18T17:32:12.188Z,1.90
2017-09-18T17:34:40.474Z,2.37
2017-09-18T17:37:08.759Z,2.10
2017-09-18T17:39:37.052Z,2.17
2017-09-18T17:42:05.307Z,1.90
2017-09-18T17:44:33.588Z,2.03
2017-09-18T17:47:01.860Z,2.00
2017-09-18T17:49:30.356Z,2.10
2017-09-18T17:51:58.628Z,2.28
2017-09-18T17:54:26.915Z,2.60
2017-09-18T17:56:55.184Z,2.80
2017-09-18T17:59:23.559Z,2.03
2017-09-18T18:01:51.892Z,2.35
2017-09-18T18:04:20.229Z,2.20
2017-09-18T18:06:48.500Z,2.47
2017-09-18T18:09:17.075Z,2.33
2017-09-18T18:11:45.383Z,2.15
2017-09-18T18:14:14.423Z,2.15
2017-09-18T18:16:42.704Z,2.53
2017-09-18T18:19:11.034Z,2.85
2017-09-18T18:21:40.120Z,2.33
2017-09-18T18:24:08.432Z,3.20
2017-09-18T18:26:36.762Z,2.30
2017-09-18T18:29:05.098Z,2.42
2017-09-18T18:31:33.916Z,2.62
2017-09-18T18:34:02.174Z,2.90
2017-09-18T18:36:32.740Z,2.90
2017-09-18T18:39:03.626Z,2.72
2017-09-18T18:41:32.283Z,2.62
2017-09-18T18:44:00.564Z,3.90
2017-09-18T18:46:28.836Z,2.45
2017-09-18T18:48:57.136Z,2.90
2017-09-18T18:51:25.416Z,2.75
2017-09-18T18:53:53.681Z,3.10
2017-09-18T18:56:21.996Z,3.37
2017-09-18T18:58:51.019Z,3.50
2017-09-18T19:01:19.320Z,3.20
2017-09-18T19:03:47.592Z,3.20
2017-09-18T19:06:15.881Z,3.10
2017-09-18T19:08:44.156Z,3.87
2017-09-18T19:11:12.456Z,3.53
2017-09-18T19:13:41.584Z,3.67
2017-09-18T19:16:09.907Z,4.30
2017-09-18T19:18:39.443Z,3.33
2017-09-18T19:21:08.616Z,3.90
2017-09-18T19:23:36.896Z,3.40
2017-09-18T19:26:09.090Z,4.10
2017-09-18T19:28:38.601Z,4.35
2017-09-18T19:31:07.078Z,4.22
2017-09-18T19:33:35.362Z,4.68
2017-09-18T19:36:03.672Z,4.22
2017-09-18T19:38:32.811Z,4.45
2017-09-18T19:41:01.212Z,4.80
2017-09-18T19:43:30.445Z,5.10
2017-09-18T19:48:35.215Z,5.37
2017-09-18T19:51:04.301Z,5.62
2017-09-18T19:53:33.341Z,4.87
2017-09-18T19:56:01.611Z,4.40
2017-09-18T19:58:29.892Z,4.93
2017-09-18T20:00:58.159Z,4.68
2017-09-18T20:03:27.212Z,4.65
2017-09-18T20:05:55.488Z,4.85
2017-09-18T20:08:24.568Z,5.07
2017-09-18T20:10:53.600Z,5.00
2017-09-18T20:13:21.869Z,4.68
2017-09-18T20:15:50.156Z,6.07
2017-09-18T20:18:18.398Z,4.57
2017-09-18T20:20:46.700Z,4.62
2017-09-18T20:23:15.720Z,4.28
2017-09-18T20:25:44.020Z,4.90
2017-09-18T20:28:12.291Z,4.57
2017-09-18T20:30:41.357Z,4.62
2017-09-18T20:33:09.652Z,5.20
2017-09-18T20:35:38.668Z,4.55
2017-09-18T20:38:06.920Z,5.50
2017-09-18T20:40:35.195Z,5.05
2017-09-18T20:43:03.458Z,5.05
2017-09-18T20:45:31.767Z,5.40
2017-09-18T20:48:00.804Z,4.62
2017-09-18T20:50:29.077Z,4.32
2017-09-18T20:52:57.424Z,5.20
2017-09-18T20:55:25.700Z,4.82
2017-09-18T20:57:55.518Z,4.93
2017-09-18T21:00:23.772Z,4.40
2017-09-18T21:02:52.039Z,5.60
2017-09-18T21:05:20.368Z,5.35
2017-09-18T21:07:48.639Z,5.22
2017-09-18T21:10:16.956Z,5.00
2017-09-18T21:12:45.220Z,4.82
2017-09-18T21:15:13.503Z,5.47
2017-09-18T21:17:41.791Z,5.30
2017-09-18T21:20:10.068Z,5.18
2017-09-18T21:22:39.383Z,5.90
2017-09-18T21:25:07.636Z,5.68
2017-09-18T21:27:36.694Z,6.05
2017-09-18T21:30:04.976Z,5.22
2017-09-18T21:32:33.999Z,5.65
2017-09-18T21:35:02.331Z,6.68
2017-09-18T21:37:30.591Z,6.18
2017-09-18T21:39:58.864Z,5.70
2017-09-18T21:42:27.145Z,4.82
2017-09-18T21:44:55.512Z,4.85
2017-09-18T21:47:23.807Z,4.97
2017-09-18T21:49:52.843Z,5.03
2017-09-18T21:52:21.105Z,5.62
2017-09-18T21:54:49.394Z,4.90
2017-09-18T21:57:17.647Z,4.85
2017-09-18T21:59:45.979Z,4.30
2017-09-18T22:02:14.248Z,4.90
2017-09-18T22:04:42.516Z,4.70
2017-09-18T22:07:10.792Z,4.15
2017-09-18T22:09:39.300Z,4.62
2017-09-18T22:12:07.877Z,4.00
2017-09-18T22:14:36.135Z,4.90
2017-09-18T22:17:04.408Z,4.32
2017-09-18T22:19:32.679Z,4.25
2017-09-18T22:22:00.953Z,4.78
2017-09-18T22:24:29.483Z,3.97
2017-09-18T22:26:57.740Z,4.35
2017-09-18T22:29:26.004Z,4.37
2017-09-18T22:31:54.275Z,4.32
2017-09-18T22:34:22.532Z,4.43
2017-09-18T22:36:51.256Z,4.30
2017-09-18T22:39:19.519Z,4.47
2017-09-18T22:41:47.776Z,4.45
2017-09-18T22:44:16.052Z,4.80
2017-09-18T22:46:44.322Z,4.47
2017-09-18T22:49:12.613Z,4.60
2017-09-18T22:51:41.210Z,4.40
2017-09-18T22:54:09.452Z,4.60
2017-09-18T22:56:37.727Z,4.82
2017-09-18T22:59:05.990Z,4.35
2017-09-18T23:01:35.225Z,4.80
2017-09-18T23:04:03.458Z,4.72
2017-09-18T23:06:31.712Z,4.60
2017-09-18T23:09:00.756Z,4.35
2017-09-18T23:11:29.019Z,4.30
2017-09-18T23:13:57.321Z,4.60
2017-09-18T23:16:25.571Z,4.72
2017-09-18T23:18:53.830Z,3.97
2017-09-18T23:21:22.127Z,4.57
2017-09-18T23:23:50.403Z,4.30
2017-09-18T23:26:18.733Z,4.87
2017-09-18T23:28:47.745Z,4.15
2017-09-18T23:31:16.000Z,3.80
2017-09-18T23:33:45.229Z,4.47
2017-09-18T23:36:13.596Z,4.32
2017-09-18T23:38:41.908Z,3.55
2017-09-18T23:41:10.167Z,4.00
2017-09-18T23:43:38.427Z,4.60
2017-09-18T23:46:06.720Z,5.07
2017-09-18T23:48:34.980Z,4.30
2017-09-18T23:51:03.271Z,4.22
2017-09-18T23:53:31.527Z,3.92
2017-09-18T23:55:59.794Z,4.15
2017-09-18T23:58:28.060Z,3.75
